Time;durP1;ratioP1;P1;durP2;ratioP2;P2;SDS_P1;SDS_P2;PMS_P1;PMS_P2;Temp;Humidity;BMP_temperature;BMP_pressure;BME280_temperature;BME280_humidity;BME280_pressure;Samples;Min_cycle;Max_cycle;Signal;HPM_P1;HPM_P2
2021/10/14 00:02:00;;;;;;;2.30;1.60;;;;;;;;;;4528026;28;20024;-60
2021/10/14 00:04:14;;;;;;;3.00;1.53;;;;;;;;;;4511508;28;20048;-59
2021/10/14 00:06:24;;;;;;;3.15;1.80;;;;;;;;;;4528232;28;20037;-59
2021/10/14 00:08:35;;;;;;;3.60;1.70;;;;;;;;;;4529206;28;30662;-60
2021/10/14 00:10:45;;;;;;;2.23;1.50;;;;;;;;;;4528621;28;32655;-60
2021/10/14 00:12:56;;;;;;;3.23;1.80;;;;;;;;;;4512089;28;20449;-60
2021/10/14 00:15:07;;;;;;;3.83;1.85;;;;;;;;;;4510624;28;20037;-60
2021/10/14 00:17:18;;;;;;;3.22;1.63;;;;;;;;;;4529655;28;20052;-59
2021/10/14 00:19:28;;;;;;;3.27;1.97;;;;;;;;;;4510954;28;20044;-59
2021/10/14 00:21:38;;;;;;;3.30;1.77;;;;;;;;;;4529742;28;20144;-60
2021/10/14 00:23:49;;;;;;;2.97;1.80;;;;;;;;;;4530716;28;20041;-60
2021/10/14 00:25:59;;;;;;;2.73;1.67;;;;;;;;;;4528036;28;20029;-60
2021/10/14 00:28:10;;;;;;;4.67;2.00;;;;;;;;;;4530158;28;20037;-60
2021/10/14 00:30:20;;;;;;;2.87;1.67;;;;;;;;;;4521202;28;23884;-60
2021/10/14 00:32:31;;;;;;;5.27;2.10;;;;;;;;;;4504909;28;20038;-60
2021/10/14 00:34:41;;;;;;;2.57;1.67;;;;;;;;;;4527580;28;20042;-60
2021/10/14 00:36:52;;;;;;;2.43;1.90;;;;;;;;;;4529017;28;20480;-60
2021/10/14 00:39:02;;;;;;;2.80;1.70;;;;;;;;;;4526411;28;24708;-60
2021/10/14 00:41:16;;;;;;;2.60;1.60;;;;;;;;;;4530716;28;20132;-60
2021/10/14 00:43:26;;;;;;;3.08;1.52;;;;;;;;;;4514404;28;20040;-60
2021/10/14 00:45:37;;;;;;;3.67;1.57;;;;;;;;;;4528137;28;20044;-60
2021/10/14 00:47:47;;;;;;;2.23;1.60;;;;;;;;;;4511968;28;20115;-60
2021/10/14 00:49:58;;;;;;;3.77;1.60;;;;;;;;;;4529342;28;20033;-60
2021/10/14 00:52:09;;;;;;;3.15;1.80;;;;;;;;;;4529385;28;20037;-60
2021/10/14 00:54:19;;;;;;;2.57;1.60;;;;;;;;;;4528973;28;20042;-59
2021/10/14 00:56:30;;;;;;;2.92;1.63;;;;;;;;;;4529870;28;20033;-60
2021/10/14 00:58:40;;;;;;;2.93;1.40;;;;;;;;;;4511952;28;20450;-59
2021/10/14 01:00:51;;;;;;;2.60;1.30;;;;;;;;;;4529658;28;20037;-59
2021/10/14 01:03:02;;;;;;;2.93;1.70;;;;;;;;;;4512329;28;37419;-59
2021/10/14 01:05:13;;;;;;;2.92;1.95;;;;;;;;;;4510533;28;20145;-59
2021/10/14 01:07:23;;;;;;;2.67;1.43;;;;;;;;;;4528324;28;20033;-60
2021/10/14 01:09:33;;;;;;;2.67;1.63;;;;;;;;;;4527486;28;20397;-59
2021/10/14 01:11:44;;;;;;;2.97;1.73;;;;;;;;;;4528042;28;23890;-59
2021/10/14 01:13:54;;;;;;;3.43;2.00;;;;;;;;;;4527613;28;20077;-59
2021/10/14 01:16:05;;;;;;;4.10;2.00;;;;;;;;;;4529109;28;33670;-59
2021/10/14 01:18:15;;;;;;;1.73;1.60;;;;;;;;;;4528530;28;20033;-60
2021/10/14 01:20:26;;;;;;;3.47;2.17;;;;;;;;;;4528420;28;20040;-59
2021/10/14 01:22:36;;;;;;;3.73;2.00;;;;;;;;;;4528154;28;20037;-59
2021/10/14 01:24:47;;;;;;;3.50;2.13;;;;;;;;;;4526991;28;28742;-59
2021/10/14 01:27:02;;;;;;;2.10;1.50;;;;;;;;;;4528779;28;20544;-59
2021/10/14 01:29:13;;;;;;;3.28;2.00;;;;;;;;;;4527477;28;20042;-59
2021/10/14 01:31:27;;;;;;;4.47;2.03;;;;;;;;;;4511133;28;20049;-59
2021/10/14 01:33:37;;;;;;;3.17;1.90;;;;;;;;;;4528911;28;20041;-59
2021/10/14 01:35:47;;;;;;;3.07;2.07;;;;;;;;;;4527708;28;20432;-59
2021/10/14 01:37:58;;;;;;;3.00;1.97;;;;;;;;;;4526376;28;28471;-59
2021/10/14 01:40:09;;;;;;;3.53;2.23;;;;;;;;;;4527583;28;20044;-59
2021/10/14 01:42:19;;;;;;;3.58;2.10;;;;;;;;;;4510922;28;20042;-59
2021/10/14 01:44:30;;;;;;;3.40;1.90;;;;;;;;;;4527763;28;21775;-59
2021/10/14 01:46:40;;;;;;;3.27;1.90;;;;;;;;;;4528202;28;20489;-59
2021/10/14 01:48:51;;;;;;;3.30;1.90;;;;;;;;;;4528340;28;20119;-59
2021/10/14 01:51:02;;;;;;;3.77;2.00;;;;;;;;;;4526749;28;20192;-59
2021/10/14 01:53:13;;;;;;;3.75;1.80;;;;;;;;;;4528520;28;20037;-59
2021/10/14 01:55:23;;;;;;;2.63;1.67;;;;;;;;;;4526265;28;37234;-59
2021/10/14 01:57:34;;;;;;;3.23;1.80;;;;;;;;;;4513017;28;20037;-59
2021/10/14 01:59:44;;;;;;;3.60;1.77;;;;;;;;;;4520539;28;20391;-59
2021/10/14 02:01:55;;;;;;;1.83;1.40;;;;;;;;;;4527672;28;20029;-59
2021/10/14 02:04:05;;;;;;;3.07;1.90;;;;;;;;;;4527272;28;20040;-59
2021/10/14 02:06:15;;;;;;;3.50;1.67;;;;;;;;;;4526848;28;24654;-59
2021/10/14 02:08:26;;;;;;;3.00;1.70;;;;;;;;;;4527379;28;20780;-59
2021/10/14 02:10:36;;;;;;;3.63;1.80;;;;;;;;;;4526985;28;20094;-59
2021/10/14 02:12:47;;;;;;;3.13;1.77;;;;;;;;;;4525425;28;20086;-59
2021/10/14 02:14:57;;;;;;;2.80;1.67;;;;;;;;;;4494025;28;20051;-59
2021/10/14 02:17:08;;;;;;;2.90;1.70;;;;;;;;;;4527828;28;20051;-59
2021/10/14 02:19:18;;;;;;;2.63;1.30;;;;;;;;;;4528979;28;20097;-59
2021/10/14 02:21:28;;;;;;;2.70;1.47;;;;;;;;;;4527888;28;20120;-59
2021/10/14 02:23:39;;;;;;;3.00;1.43;;;;;;;;;;4528071;28;20065;-59
2021/10/14 02:25:49;;;;;;;1.90;1.37;;;;;;;;;;4528791;28;21606;-59
2021/10/14 02:28:00;;;;;;;3.90;1.60;;;;;;;;;;4511129;28;20084;-59
2021/10/14 02:30:11;;;;;;;4.17;1.60;;;;;;;;;;4527095;28;20029;-59
2021/10/14 02:32:22;;;;;;;2.22;1.35;;;;;;;;;;4527659;28;20040;-60
2021/10/14 02:34:32;;;;;;;2.07;1.37;;;;;;;;;;4527105;28;20049;-59
2021/10/14 02:36:43;;;;;;;2.83;1.30;;;;;;;;;;4527932;28;20056;-59
2021/10/14 02:38:53;;;;;;;2.80;1.90;;;;;;;;;;4515817;28;20037;-59
2021/10/14 02:41:04;;;;;;;2.40;1.20;;;;;;;;;;4531366;28;20056;-59
2021/10/14 02:43:14;;;;;;;3.40;1.30;;;;;;;;;;4516508;28;20037;-59
2021/10/14 02:45:24;;;;;;;3.03;1.40;;;;;;;;;;4528877;28;38077;-59
2021/10/14 02:47:35;;;;;;;1.07;0.90;;;;;;;;;;4529362;28;28445;-59
2021/10/14 02:49:45;;;;;;;3.10;1.20;;;;;;;;;;4530596;28;20115;-60
2021/10/14 02:51:56;;;;;;;2.60;1.13;;;;;;;;;;4531999;28;20081;-60
2021/10/14 02:54:06;;;;;;;2.10;1.20;;;;;;;;;;4523006;28;20056;-59
2021/10/14 02:56:16;;;;;;;2.00;1.10;;;;;;;;;;4514578;28;20526;-59
2021/10/14 02:58:27;;;;;;;2.63;1.17;;;;;;;;;;4530238;28;20040;-59
2021/10/14 03:00:37;;;;;;;1.97;1.00;;;;;;;;;;4531428;28;20044;-59
2021/10/14 03:02:48;;;;;;;1.77;1.20;;;;;;;;;;4531214;28;20033;-59
2021/10/14 03:04:58;;;;;;;2.10;1.40;;;;;;;;;;4522344;28;20107;-59
2021/10/14 03:07:09;;;;;;;2.17;1.10;;;;;;;;;;4514198;28;20026;-59
2021/10/14 03:09:19;;;;;;;2.33;1.17;;;;;;;;;;4529967;28;20195;-60
2021/10/14 03:11:30;;;;;;;1.30;1.03;;;;;;;;;;4530517;28;28342;-59
2021/10/14 03:13:40;;;;;;;1.37;1.07;;;;;;;;;;4512707;28;20038;-59
2021/10/14 03:15:51;;;;;;;2.00;1.50;;;;;;;;;;4532228;28;20025;-59
2021/10/14 03:18:01;;;;;;;3.17;1.33;;;;;;;;;;4530156;28;20083;-59
2021/10/14 03:20:12;;;;;;;3.57;1.50;;;;;;;;;;4515725;28;20091;-59
2021/10/14 03:22:22;;;;;;;2.57;1.60;;;;;;;;;;4529684;28;20098;-59
2021/10/14 03:24:33;;;;;;;3.57;1.80;;;;;;;;;;4512374;28;20125;-59
2021/10/14 03:26:43;;;;;;;3.73;1.70;;;;;;;;;;4516468;28;20045;-59
2021/10/14 03:28:56;;;;;;;3.73;2.10;;;;;;;;;;4512404;28;20053;-60
2021/10/14 03:31:06;;;;;;;4.50;2.00;;;;;;;;;;4528837;28;20045;-60
2021/10/14 03:33:16;;;;;;;3.07;1.90;;;;;;;;;;4528986;28;28738;-59
2021/10/14 03:35:27;;;;;;;4.13;2.20;;;;;;;;;;4528582;28;20039;-60
2021/10/14 03:37:38;;;;;;;4.27;2.13;;;;;;;;;;4531003;28;20402;-59
2021/10/14 03:39:48;;;;;;;4.88;2.92;;;;;;;;;;4522640;28;20112;-59
2021/10/14 03:41:58;;;;;;;4.70;3.00;;;;;;;;;;4531031;28;20116;-59
2021/10/14 03:44:11;;;;;;;4.97;3.00;;;;;;;;;;4529067;28;20033;-59
2021/10/14 03:46:21;;;;;;;4.40;2.80;;;;;;;;;;4529308;28;20084;-59
2021/10/14 03:48:32;;;;;;;4.70;2.63;;;;;;;;;;4529663;28;20444;-59
2021/10/14 03:50:42;;;;;;;4.47;2.87;;;;;;;;;;4523032;28;20136;-60
2021/10/14 03:52:53;;;;;;;5.37;2.70;;;;;;;;;;4512845;28;20036;-60
2021/10/14 03:55:04;;;;;;;2.97;2.40;;;;;;;;;;4529631;28;20030;-60
2021/10/14 03:57:14;;;;;;;5.38;2.67;;;;;;;;;;4530757;28;20106;-60
2021/10/14 03:59:24;;;;;;;6.27;3.00;;;;;;;;;;4511423;28;20030;-59
2021/10/14 04:01:35;;;;;;;5.23;3.10;;;;;;;;;;4522091;28;24127;-59
2021/10/14 04:03:45;;;;;;;5.27;3.40;;;;;;;;;;4522594;28;20516;-59
2021/10/14 04:05:56;;;;;;;5.37;3.33;;;;;;;;;;4528354;28;20065;-60
2021/10/14 04:08:06;;;;;;;5.10;3.33;;;;;;;;;;4529779;28;20092;-59
2021/10/14 04:10:17;;;;;;;5.43;3.13;;;;;;;;;;4530245;28;20995;-60
2021/10/14 04:12:27;;;;;;;5.10;3.20;;;;;;;;;;4512232;28;20045;-59
2021/10/14 04:14:37;;;;;;;4.17;2.80;;;;;;;;;;4528267;28;20076;-59
2021/10/14 04:16:48;;;;;;;4.63;2.90;;;;;;;;;;4529288;28;20037;-60
2021/10/14 04:18:58;;;;;;;5.43;3.57;;;;;;;;;;4529352;28;36679;-59
2021/10/14 04:21:09;;;;;;;5.97;3.23;;;;;;;;;;4511610;28;20033;-59
2021/10/14 04:23:20;;;;;;;5.87;3.67;;;;;;;;;;4511643;28;20041;-60
2021/10/14 04:25:31;;;;;;;5.80;3.63;;;;;;;;;;4530095;28;20037;-59
2021/10/14 04:27:41;;;;;;;5.03;3.17;;;;;;;;;;4513596;28;20494;-60
2021/10/14 04:29:52;;;;;;;6.00;3.33;;;;;;;;;;4529218;28;20034;-59
2021/10/14 04:32:06;;;;;;;7.77;3.77;;;;;;;;;;4512067;28;20861;-59
2021/10/14 04:34:17;;;;;;;5.20;3.60;;;;;;;;;;4528098;28;20052;-60
2021/10/14 04:36:27;;;;;;;6.20;3.33;;;;;;;;;;4528943;28;20549;-59
2021/10/14 04:38:38;;;;;;;5.30;3.37;;;;;;;;;;4496866;28;20039;-59
2021/10/14 04:40:48;;;;;;;5.70;3.43;;;;;;;;;;4529804;28;20577;-59
2021/10/14 04:42:59;;;;;;;5.43;3.43;;;;;;;;;;4528511;28;20041;-60
2021/10/14 04:45:09;;;;;;;3.73;2.90;;;;;;;;;;4527716;28;20040;-59
2021/10/14 04:47:20;;;;;;;5.43;3.37;;;;;;;;;;4528107;28;33142;-59
2021/10/14 04:49:31;;;;;;;5.53;3.43;;;;;;;;;;4528899;28;20049;-60
2021/10/14 04:51:41;;;;;;;5.37;3.23;;;;;;;;;;4514504;28;20483;-59
2021/10/14 04:53:51;;;;;;;4.87;3.20;;;;;;;;;;4527182;28;28778;-59
2021/10/14 04:56:02;;;;;;;5.47;3.50;;;;;;;;;;4528908;28;20033;-60
2021/10/14 04:58:12;;;;;;;4.97;3.47;;;;;;;;;;4527391;28;20075;-60
2021/10/14 05:00:23;;;;;;;5.37;3.43;;;;;;;;;;4526554;28;30978;-60
2021/10/14 05:02:33;;;;;;;4.77;3.30;;;;;;;;;;4498701;28;20052;-60
2021/10/14 05:04:43;;;;;;;4.67;3.20;;;;;;;;;;4529343;28;20026;-60
2021/10/14 05:06:54;;;;;;;5.43;3.40;;;;;;;;;;4509030;28;20053;-60
2021/10/14 05:09:04;;;;;;;5.40;3.17;;;;;;;;;;4527341;28;20049;-60
2021/10/14 05:11:15;;;;;;;5.60;3.20;;;;;;;;;;4528420;28;20037;-60
2021/10/14 05:13:25;;;;;;;5.80;3.43;;;;;;;;;;4520750;28;20490;-60
2021/10/14 05:15:39;;;;;;;4.90;3.33;;;;;;;;;;4513869;28;20088;-59
2021/10/14 05:17:50;;;;;;;5.40;3.38;;;;;;;;;;4509358;28;20034;-60
2021/10/14 05:20:04;;;;;;;5.73;3.80;;;;;;;;;;4528641;28;24273;-60
2021/10/14 05:22:15;;;;;;;6.65;3.53;;;;;;;;;;4527677;28;20599;-60
2021/10/14 05:24:25;;;;;;;5.03;3.47;;;;;;;;;;4529349;28;20059;-60
2021/10/14 05:26:35;;;;;;;5.83;3.43;;;;;;;;;;4526880;28;23621;-60
2021/10/14 05:28:46;;;;;;;4.27;2.87;;;;;;;;;;4527607;28;20041;-60
2021/10/14 05:30:56;;;;;;;4.83;3.10;;;;;;;;;;4511223;28;20073;-60
2021/10/14 05:33:07;;;;;;;5.53;3.20;;;;;;;;;;4496048;28;20089;-60
2021/10/14 05:35:17;;;;;;;6.70;3.30;;;;;;;;;;4514425;28;23202;-60
2021/10/14 05:37:28;;;;;;;6.43;3.80;;;;;;;;;;4510942;28;20040;-61
2021/10/14 05:39:39;;;;;;;6.22;3.80;;;;;;;;;;4514553;28;20055;-60
2021/10/14 05:41:49;;;;;;;5.43;3.70;;;;;;;;;;4528331;28;20049;-59
2021/10/14 05:43:59;;;;;;;5.83;3.90;;;;;;;;;;4527390;28;20112;-59
2021/10/14 05:46:10;;;;;;;6.93;3.87;;;;;;;;;;4528811;28;20032;-60
2021/10/14 05:48:20;;;;;;;5.97;3.60;;;;;;;;;;4521259;28;20125;-60
2021/10/14 05:50:31;;;;;;;7.13;4.23;;;;;;;;;;4528919;28;20033;-60
2021/10/14 05:52:41;;;;;;;6.80;3.83;;;;;;;;;;4526934;28;20037;-60
2021/10/14 05:54:52;;;;;;;5.37;3.63;;;;;;;;;;4511432;28;20402;-60
2021/10/14 05:57:02;;;;;;;6.13;3.57;;;;;;;;;;4527653;28;36990;-60
2021/10/14 05:59:12;;;;;;;6.23;3.73;;;;;;;;;;4527413;28;20058;-60
2021/10/14 06:01:23;;;;;;;6.93;4.13;;;;;;;;;;4527655;28;20584;-60
2021/10/14 06:03:36;;;;;;;6.77;4.30;;;;;;;;;;4526497;28;20089;-60
2021/10/14 06:05:47;;;;;;;6.57;4.18;;;;;;;;;;4528423;28;20581;-60
2021/10/14 06:07:57;;;;;;;7.37;4.33;;;;;;;;;;4526962;28;20029;-59
2021/10/14 06:10:07;;;;;;;7.00;4.50;;;;;;;;;;4526923;28;20029;-60
2021/10/14 06:12:20;;;;;;;7.47;4.50;;;;;;;;;;4528481;28;20498;-60
2021/10/14 06:14:30;;;;;;;8.07;4.53;;;;;;;;;;4529782;28;20041;-60
2021/10/14 06:16:41;;;;;;;6.67;4.33;;;;;;;;;;4529457;28;20044;-60
2021/10/14 06:18:51;;;;;;;7.53;4.40;;;;;;;;;;4531227;28;20052;-59
2021/10/14 06:21:01;;;;;;;7.23;4.37;;;;;;;;;;4511874;28;20037;-60
2021/10/14 06:23:12;;;;;;;8.53;5.63;;;;;;;;;;4531012;28;20049;-60
2021/10/14 06:25:23;;;;;;;7.57;4.80;;;;;;;;;;4530504;28;20080;-59
2021/10/14 06:27:33;;;;;;;7.27;4.63;;;;;;;;;;4529960;28;20027;-59
2021/10/14 06:29:43;;;;;;;7.07;4.83;;;;;;;;;;4512447;28;20057;-60
2021/10/14 06:31:54;;;;;;;9.13;5.67;;;;;;;;;;4531491;28;25504;-59
2021/10/14 06:34:04;;;;;;;2.70;1.63;;;;;;;;;;4530056;28;20087;-59
2021/10/14 06:36:15;;;;;;;0.50;0.50;;;;;;;;;;4510578;28;20417;-59
2021/10/14 06:38:25;;;;;;;9.40;6.37;;;;;;;;;;4529973;28;20025;-60
2021/10/14 06:40:36;;;;;;;6.03;4.13;;;;;;;;;;4529922;28;20083;-61
2021/10/14 06:42:46;;;;;;;8.67;5.67;;;;;;;;;;4530332;28;20033;-59
2021/10/14 06:44:57;;;;;;;1.50;0.90;;;;;;;;;;4513525;28;20095;-59
2021/10/14 06:47:07;;;;;;;9.27;6.37;;;;;;;;;;4528895;28;20033;-59
2021/10/14 06:49:17;;;;;;;9.30;6.07;;;;;;;;;;4530941;28;20033;-58
2021/10/14 06:51:28;;;;;;;8.67;6.07;;;;;;;;;;4530580;28;20048;-57
2021/10/14 06:53:38;;;;;;;7.50;4.97;;;;;;;;;;4513402;28;20228;-57
2021/10/14 06:55:49;;;;;;;7.77;5.27;;;;;;;;;;4512355;28;20536;-57
2021/10/14 06:58:00;;;;;;;9.35;6.18;;;;;;;;;;4529841;28;20564;-57
2021/10/14 07:00:11;;;;;;;8.57;6.27;;;;;;;;;;4529514;28;20041;-57
2021/10/14 07:02:21;;;;;;;9.45;7.05;;;;;;;;;;4530265;28;20060;-57
2021/10/14 07:04:32;;;;;;;10.30;6.70;;;;;;;;;;4505323;28;20689;-58
2021/10/14 07:06:42;;;;;;;10.43;6.60;;;;;;;;;;4529226;28;20041;-58
2021/10/14 07:08:52;;;;;;;8.63;6.30;;;;;;;;;;4527603;28;20033;-58
2021/10/14 07:11:03;;;;;;;9.80;6.70;;;;;;;;;;4510601;28;20049;-58
2021/10/14 07:13:14;;;;;;;9.37;6.43;;;;;;;;;;4530653;28;20082;-58
2021/10/14 07:15:24;;;;;;;10.07;6.97;;;;;;;;;;4510728;28;20491;-58
2021/10/14 07:17:35;;;;;;;10.23;7.17;;;;;;;;;;4530826;28;20095;-57
2021/10/14 07:19:46;;;;;;;13.77;9.70;;;;;;;;;;4528695;28;20566;-58
2021/10/14 07:21:56;;;;;;;11.60;9.17;;;;;;;;;;4529410;28;20037;-58
2021/10/14 07:24:07;;;;;;;15.20;11.40;;;;;;;;;;4528622;28;20043;-58
2021/10/14 07:26:18;;;;;;;10.57;7.40;;;;;;;;;;4516336;28;20033;-59
2021/10/14 07:28:28;;;;;;;0.97;0.80;;;;;;;;;;4512330;28;20017;-59
2021/10/14 07:30:40;;;;;;;0.80;0.70;;;;;;;;;;4529861;28;20037;-59
2021/10/14 07:32:50;;;;;;;1.83;0.90;;;;;;;;;;4521962;28;20037;-59
2021/10/14 07:35:03;;;;;;;4.63;1.00;;;;;;;;;;4521011;28;20085;-59
2021/10/14 07:37:18;;;;;;;1.65;0.65;;;;;;;;;;4528796;28;20485;-62
2021/10/14 07:39:29;;;;;;;0.50;0.50;;;;;;;;;;4522028;28;20037;-59
2021/10/14 07:41:39;;;;;;;7.50;5.63;;;;;;;;;;4528337;28;20037;-59
2021/10/14 07:43:50;;;;;;;7.70;5.07;;;;;;;;;;4512153;28;20050;-59
2021/10/14 07:46:01;;;;;;;6.87;4.80;;;;;;;;;;4527820;28;20675;-59
2021/10/14 07:48:11;;;;;;;8.55;5.68;;;;;;;;;;4528841;28;20041;-59
2021/10/14 07:50:22;;;;;;;8.37;5.97;;;;;;;;;;4527718;28;20030;-59
2021/10/14 07:52:32;;;;;;;7.97;5.33;;;;;;;;;;4528546;28;20049;-59
2021/10/14 07:54:43;;;;;;;8.73;6.30;;;;;;;;;;4528497;28;20464;-58
2021/10/14 07:56:53;;;;;;;7.23;5.20;;;;;;;;;;4510247;28;20041;-59
2021/10/14 07:59:04;;;;;;;7.30;5.20;;;;;;;;;;4528251;28;20041;-58
2021/10/14 08:01:15;;;;;;;7.10;5.07;;;;;;;;;;4510572;28;20038;-58
2021/10/14 08:03:25;;;;;;;7.73;3.87;;;;;;;;;;4527764;28;20274;-59
2021/10/14 08:05:36;;;;;;;7.30;5.27;;;;;;;;;;4528787;28;20040;-59
2021/10/14 08:07:47;;;;;;;7.88;5.50;;;;;;;;;;4523972;28;20788;-58
2021/10/14 08:09:57;;;;;;;7.80;5.50;;;;;;;;;;4526909;28;20094;-59
2021/10/14 08:12:08;;;;;;;12.07;2.90;;;;;;;;;;4528882;28;20037;-58
2021/10/14 08:14:18;;;;;;;5.40;2.90;;;;;;;;;;4529651;28;20045;-58
2021/10/14 08:16:29;;;;;;;5.80;3.83;;;;;;;;;;4527619;28;20083;-58
2021/10/14 08:18:39;;;;;;;6.23;4.10;;;;;;;;;;4510908;28;20486;-71
2021/10/14 08:20:51;;;;;;;19.90;4.63;;;;;;;;;;4528918;28;20448;-61
2021/10/14 08:23:02;;;;;;;21.02;4.70;;;;;;;;;;4527632;28;20043;-61
2021/10/14 08:25:14;;;;;;;6.78;4.22;;;;;;;;;;4527374;28;20503;-63
2021/10/14 08:27:25;;;;;;;7.03;4.78;;;;;;;;;;4500065;28;20873;-60
2021/10/14 08:29:36;;;;;;;6.60;4.43;;;;;;;;;;4526732;28;20630;-61
2021/10/14 08:31:46;;;;;;;7.03;4.87;;;;;;;;;;4525803;28;20057;-60
2021/10/14 08:33:57;;;;;;;21.43;4.87;;;;;;;;;;4527060;28;20490;-60
2021/10/14 08:36:08;;;;;;;14.20;4.37;;;;;;;;;;4526888;28;20747;-61
2021/10/14 08:38:18;;;;;;;12.57;4.63;;;;;;;;;;4511247;28;20037;-62
2021/10/14 08:40:29;;;;;;;10.20;4.87;;;;;;;;;;4526734;28;21525;-62
2021/10/14 08:42:40;;;;;;;6.87;5.17;;;;;;;;;;4511792;28;20137;-62
2021/10/14 08:44:50;;;;;;;7.70;5.35;;;;;;;;;;4529436;28;20058;-61
2021/10/14 08:47:01;;;;;;;13.60;4.07;;;;;;;;;;4527593;28;20045;-61
2021/10/14 08:49:14;;;;;;;16.37;4.67;;;;;;;;;;4529289;28;20120;-62
2021/10/14 08:51:24;;;;;;;5.85;3.10;;;;;;;;;;4518114;28;20046;-61
2021/10/14 08:53:37;;;;;;;8.27;5.70;;;;;;;;;;4528293;28;20042;-61
2021/10/14 08:55:47;;;;;;;17.50;4.60;;;;;;;;;;4519915;28;20714;-61
2021/10/14 08:57:58;;;;;;;5.47;3.57;;;;;;;;;;4528213;28;20040;-62
2021/10/14 09:00:09;;;;;;;16.57;4.70;;;;;;;;;;4514098;28;20062;-61
2021/10/14 09:02:20;;;;;;;12.63;4.35;;;;;;;;;;4526716;28;20069;-61
2021/10/14 09:04:32;;;;;;;14.00;4.00;;;;;;;;;;4509256;28;20118;-61
2021/10/14 09:06:42;;;;;;;16.75;4.45;;;;;;;;;;4508487;28;20648;-61
2021/10/14 09:08:53;;;;;;;10.93;3.70;;;;;;;;;;4528123;28;20041;-62
2021/10/14 09:11:07;;;;;;;7.47;4.17;;;;;;;;;;4528106;28;20068;-62
2021/10/14 09:13:23;;;;;;;7.00;5.00;;;;;;;;;;4528608;28;20140;-61
2021/10/14 09:15:33;;;;;;;24.95;18.45;;;;;;;;;;4528147;28;20038;-60
2021/10/14 09:17:52;;;;;;;7.00;5.20;;;;;;;;;;4514619;28;20046;-61
2021/10/14 09:20:20;;;;;;;6.32;4.57;;;;;;;;;;4528659;28;20037;-61
2021/10/14 09:22:55;;;;;;;6.85;4.80;;;;;;;;;;4527841;28;20068;-62
2021/10/14 09:25:07;;;;;;;6.15;4.30;;;;;;;;;;4509533;28;20034;-61
2021/10/14 09:27:19;;;;;;;6.60;4.78;;;;;;;;;;4514311;28;20040;-61
2021/10/14 09:29:30;;;;;;;7.95;5.38;;;;;;;;;;4507415;28;20042;-61
2021/10/14 09:31:58;;;;;;;13.77;3.90;;;;;;;;;;4519217;28;20647;-62
2021/10/14 09:34:32;;;;;;;11.32;3.80;;;;;;;;;;4512591;28;20512;-61
2021/10/14 09:36:43;;;;;;;9.50;3.42;;;;;;;;;;4528382;28;20084;-61
2021/10/14 09:39:03;;;;;;;8.37;5.70;;;;;;;;;;4525963;28;24045;-70
2021/10/14 09:41:17;;;;;;;12.57;3.78;;;;;;;;;;4495609;28;20712;-69
2021/10/14 09:43:29;;;;;;;12.77;3.70;;;;;;;;;;4525844;28;20033;-71
2021/10/14 09:45:39;;;;;;;13.13;4.07;;;;;;;;;;4478307;28;20034;-71
2021/10/14 09:48:02;;;;;;;11.33;3.70;;;;;;;;;;4523824;28;22967;-68
2021/10/14 09:50:12;;;;;;;12.55;3.90;;;;;;;;;;4524944;28;20029;-62
2021/10/14 09:52:23;;;;;;;8.30;3.27;;;;;;;;;;4509031;28;20050;-61
2021/10/14 09:54:33;;;;;;;12.40;7.60;;;;;;;;;;4525617;28;24209;-61
2021/10/14 09:56:44;;;;;;;9.73;6.73;;;;;;;;;;4518913;28;20550;-62
2021/10/14 09:58:56;;;;;;;7.67;5.60;;;;;;;;;;4526507;28;20112;-61
2021/10/14 10:01:07;;;;;;;7.78;5.30;;;;;;;;;;4512077;28;20112;-62
2021/10/14 10:03:20;;;;;;;7.30;5.10;;;;;;;;;;4502225;28;20037;-62
2021/10/14 10:05:30;;;;;;;8.77;5.40;;;;;;;;;;4526054;28;20029;-62
2021/10/14 10:07:43;;;;;;;16.83;13.50;;;;;;;;;;4525961;28;20037;-62
2021/10/14 10:09:53;;;;;;;9.25;6.40;;;;;;;;;;4523687;28;20568;-66
2021/10/14 10:12:04;;;;;;;9.07;6.13;;;;;;;;;;4509002;28;20053;-64
2021/10/14 10:14:15;;;;;;;7.93;5.18;;;;;;;;;;4495051;28;20022;-66
2021/10/14 10:16:26;;;;;;;11.80;3.37;;;;;;;;;;4525012;28;20041;-68
2021/10/14 10:18:40;;;;;;;9.50;3.50;;;;;;;;;;4510329;28;20115;-60
2021/10/14 10:20:50;;;;;;;11.00;3.33;;;;;;;;;;4527138;28;20052;-59
2021/10/14 10:23:01;;;;;;;11.03;3.77;;;;;;;;;;4525841;28;20049;-60
2021/10/14 10:25:23;;;;;;;8.03;3.13;;;;;;;;;;4508706;28;20871;-60
2021/10/14 10:34:01;;;;;;;9.90;3.53;;;;;;;;;;4528921;28;21163;-65
2021/10/14 10:50:32;;;;;;;13.25;5.50;;;;;;;;;;4584708;27;20554;-58
2021/10/14 10:55:57;;;;;;;5.28;2.92;;;;;;;;;;4541936;28;21005;-68
2021/10/14 10:58:09;;;;;;;7.28;5.05;;;;;;;;;;4541868;28;20203;-63
2021/10/14 11:00:20;;;;;;;13.60;5.82;;;;;;;;;;4543135;28;20041;-65
2021/10/14 11:02:31;;;;;;;6.65;4.90;;;;;;;;;;4543600;28;20524;-60
2021/10/14 11:04:41;;;;;;;13.57;5.33;;;;;;;;;;4550260;28;20614;-56
2021/10/14 11:08:07;;;;;;;6.65;4.53;;;;;;;;;;4596022;27;20476;-64
2021/10/14 11:10:26;;;;;;;12.55;5.53;;;;;;;;;;4583636;27;20036;-70
2021/10/14 11:15:37;;;;;;;6.60;4.32;;;;;;;;;;4526648;28;20523;-63
2021/10/14 11:18:07;;;;;;;6.43;4.30;;;;;;;;;;4524605;28;20037;-65
2021/10/14 11:21:25;;;;;;;9.88;4.53;;;;;;;;;;4576219;27;21256;-63
2021/10/14 11:23:37;;;;;;;10.57;6.03;;;;;;;;;;4577361;27;20036;-62
2021/10/14 11:26:18;;;;;;;1767.80;743.15;;;;;;;;;;4578586;27;20024;-63
2021/10/14 11:28:29;;;;;;;50.57;26.87;;;;;;;;;;4558885;27;20040;-61
2021/10/14 11:30:42;;;;;;;16.77;9.13;;;;;;;;;;4580164;27;20036;-60
2021/10/14 11:32:59;;;;;;;15.13;5.90;;;;;;;;;;4579164;27;21102;-60
2021/10/14 11:35:09;;;;;;;12.55;5.22;;;;;;;;;;4577098;27;20151;-60
2021/10/14 11:37:21;;;;;;;12.50;5.37;;;;;;;;;;4575743;27;20928;-61
2021/10/14 11:42:12;;;;;;;6.72;4.28;;;;;;;;;;4557290;28;20471;-63
2021/10/14 11:44:25;;;;;;;6.82;4.80;;;;;;;;;;4555831;28;20037;-64
2021/10/14 11:46:38;;;;;;;11.75;5.85;;;;;;;;;;4567281;28;20094;-66
2021/10/14 11:48:51;;;;;;;10.80;5.40;;;;;;;;;;4558718;28;20013;-66
2021/10/14 11:51:06;;;;;;;9.90;4.60;;;;;;;;;;4560700;27;20527;-66
2021/10/14 11:53:16;;;;;;;10.13;4.72;;;;;;;;;;4556684;28;20025;-66
2021/10/14 11:55:27;;;;;;;10.97;4.97;;;;;;;;;;4555765;27;20028;-66
2021/10/14 11:57:38;;;;;;;10.57;3.90;;;;;;;;;;4554880;28;20474;-66
2021/10/14 11:59:48;;;;;;;7.85;3.80;;;;;;;;;;4556076;28;20080;-66
2021/10/14 12:02:08;;;;;;;15.73;11.63;;;;;;;;;;4559409;27;20047;-66
2021/10/14 12:04:24;;;;;;;835.17;297.08;;;;;;;;;;4542174;28;20036;-59
2021/10/14 12:06:35;;;;;;;56.00;35.30;;;;;;;;;;4558089;28;20021;-63
2021/10/14 12:08:46;;;;;;;17.55;10.27;;;;;;;;;;4553692;28;20032;-63
2021/10/14 12:10:58;;;;;;;14.57;6.38;;;;;;;;;;4553711;28;20032;-62
2021/10/14 12:13:09;;;;;;;15.85;6.28;;;;;;;;;;4555798;28;20495;-63
2021/10/14 12:15:25;;;;;;;16.23;7.17;;;;;;;;;;4559262;28;20029;-63
2021/10/14 12:17:41;;;;;;;11.20;5.70;;;;;;;;;;4548910;28;20721;-63
2021/10/14 12:19:51;;;;;;;14.65;6.82;;;;;;;;;;4557144;28;20028;-63
2021/10/14 12:22:06;;;;;;;14.30;5.80;;;;;;;;;;4556995;28;20037;-63
2021/10/14 12:24:23;;;;;;;12.48;5.32;;;;;;;;;;4556108;28;20127;-63
2021/10/14 12:26:39;;;;;;;11.63;5.50;;;;;;;;;;4560752;28;20106;-63
2021/10/14 12:28:50;;;;;;;15.05;5.97;;;;;;;;;;4558647;28;20075;-63
2021/10/14 12:31:07;;;;;;;12.93;5.87;;;;;;;;;;4558594;28;20028;-63
2021/10/14 12:33:19;;;;;;;11.05;5.30;;;;;;;;;;4559417;27;20028;-64
2021/10/14 12:35:29;;;;;;;;;;;;;;;;;;4558209;28;20017;-63
2021/10/14 12:37:40;;;;;;;11.55;4.78;;;;;;;;;;4560087;28;19908;-63
2021/10/14 12:40:23;;;;;;;9.83;5.10;;;;;;;;;;4556993;28;20033;-63
2021/10/14 12:48:50;;;;;;;6.95;4.40;;;;;;;;;;4554638;27;21105;-63
2021/10/14 12:51:07;;;;;;;7.70;5.80;;;;;;;;;;4556448;28;20029;-63
2021/10/14 12:53:18;;;;;;;8.25;6.00;;;;;;;;;;4548220;28;20029;-63
2021/10/14 12:55:28;;;;;;;7.33;5.53;;;;;;;;;;4543373;28;20025;-63
2021/10/14 12:57:39;;;;;;;8.50;5.67;;;;;;;;;;4543911;28;20021;-62
2021/10/14 12:59:49;;;;;;;8.03;5.73;;;;;;;;;;4546751;28;20029;-63
2021/10/14 13:02:00;;;;;;;9.00;5.60;;;;;;;;;;4546695;28;20033;-62
2021/10/14 13:04:11;;;;;;;8.60;6.30;;;;;;;;;;4546091;28;20028;-62
2021/10/14 13:06:22;;;;;;;10.30;6.78;;;;;;;;;;4545893;28;20032;-62
2021/10/14 13:08:35;;;;;;;11.82;7.97;;;;;;;;;;4545302;28;20020;-62
2021/10/14 13:11:06;;;;;;;10.23;4.93;;;;;;;;;;4546100;28;20033;-63
2021/10/14 13:13:16;;;;;;;8.00;4.10;;;;;;;;;;4543529;28;20183;-62
2021/10/14 13:15:27;;;;;;;10.00;4.43;;;;;;;;;;4544160;28;20264;-62
2021/10/14 13:17:37;;;;;;;8.63;5.77;;;;;;;;;;4525309;28;20041;-62
2021/10/14 13:19:47;;;;;;;10.90;9.07;;;;;;;;;;4544404;28;20027;-62
2021/10/14 13:21:58;;;;;;;8.23;4.23;;;;;;;;;;4541440;28;20091;-62
2021/10/14 13:24:09;;;;;;;7.30;4.00;;;;;;;;;;4543318;28;20041;-62
2021/10/14 13:26:20;;;;;;;;;;;;;;;;;;4542930;28;20102;-62
2021/10/14 13:28:33;;;;;;;8.88;4.15;;;;;;;;;;4542897;28;19905;-62
2021/10/14 13:30:43;;;;;;;8.48;4.05;;;;;;;;;;4540631;28;20439;-62
2021/10/14 13:32:53;;;;;;;8.50;4.20;;;;;;;;;;4542115;28;20028;-63
2021/10/14 13:35:06;;;;;;;9.53;4.27;;;;;;;;;;4542972;28;20021;-62
2021/10/14 13:37:16;;;;;;;9.18;4.05;;;;;;;;;;4542209;28;20037;-62
2021/10/14 13:39:27;;;;;;;8.03;3.80;;;;;;;;;;4531832;28;20072;-62
2021/10/14 13:41:37;;;;;;;9.53;5.53;;;;;;;;;;4530453;28;20052;-62
2021/10/14 13:43:55;;;;;;;7.83;5.77;;;;;;;;;;4513928;28;20046;-62
2021/10/14 13:46:06;;;;;;;7.00;5.38;;;;;;;;;;4541439;28;20026;-62